Time;durP1;ratioP1;P1;durP2;ratioP2;P2;SDS_P1;SDS_P2;PMS_P1;PMS_P2;Temp;Humidity;BMP_temperature;BMP_pressure;BME280_temperature;BME280_humidity;BME280_pressure;Samples;Min_cycle;Max_cycle;Signal;HPM_P1;HPM_P2
2022/04/06 00:01:37;;;;;;;;;;;10.10;99.90;;;;;;5093525;28;19920;-76
2022/04/06 00:04:03;;;;;;;;;;;10.10;99.90;;;;;;5103597;28;19912;-78
2022/04/06 00:06:28;;;;;;;;;;;10.10;99.90;;;;;;5094779;28;19955;-76
2022/04/06 00:08:54;;;;;;;;;;;10.10;99.90;;;;;;5094290;28;20319;-77
2022/04/06 00:11:19;;;;;;;;;;;10.00;99.90;;;;;;5093754;28;20011;-77
2022/04/06 00:13:45;;;;;;;;;;;10.00;99.90;;;;;;5104179;28;19977;-78
2022/04/06 00:16:11;;;;;;;;;;;9.90;99.90;;;;;;5107902;28;19912;-78
2022/04/06 00:18:36;;;;;;;;;;;9.80;99.90;;;;;;5093438;28;19915;-78
2022/04/06 00:21:02;;;;;;;;;;;9.80;99.90;;;;;;5093875;28;19987;-78
2022/04/06 00:23:28;;;;;;;;;;;9.70;99.90;;;;;;5093840;28;19912;-78
2022/04/06 00:25:55;;;;;;;;;;;9.70;99.90;;;;;;5093416;28;20360;-78
2022/04/06 00:28:21;;;;;;;;;;;9.70;99.90;;;;;;5093851;28;20003;-79
2022/04/06 00:30:46;;;;;;;;;;;9.70;99.90;;;;;;5093181;28;20741;-78
2022/04/06 00:33:12;;;;;;;;;;;9.60;99.90;;;;;;5093248;28;20335;-78
2022/04/06 00:35:38;;;;;;;;;;;9.60;99.90;;;;;;5093070;28;20002;-78
2022/04/06 00:38:05;;;;;;;;;;;9.70;99.90;;;;;;5094090;28;20265;-78
2022/04/06 00:40:32;;;;;;;;;;;9.60;99.90;;;;;;5093405;28;19908;-77
2022/04/06 00:42:58;;;;;;;;;;;9.60;99.90;;;;;;5093390;28;19912;-79
2022/04/06 00:45:24;;;;;;;;;;;9.50;99.90;;;;;;5092195;28;19991;-78
2022/04/06 00:47:50;;;;;;;;;;;9.50;99.90;;;;;;5092933;28;19969;-79
2022/04/06 00:50:17;;;;;;;;;;;9.50;99.90;;;;;;5092892;28;19916;-79
2022/04/06 00:52:43;;;;;;;;;;;9.50;99.90;;;;;;5092662;28;19916;-79
2022/04/06 00:55:09;;;;;;;;;;;9.50;99.90;;;;;;5093347;28;19954;-78
2022/04/06 00:57:35;;;;;;;;;;;9.50;99.90;;;;;;5092703;28;19908;-78
2022/04/06 01:00:01;;;;;;;;;;;9.50;99.90;;;;;;5093310;28;19915;-79
2022/04/06 01:02:26;;;;;;;;;;;9.50;99.90;;;;;;5093106;28;19965;-78
2022/04/06 01:04:52;;;;;;;;;;;9.50;99.90;;;;;;5092709;28;20373;-78
2022/04/06 01:07:18;;;;;;;;;;;9.50;99.90;;;;;;5092149;28;19912;-79
2022/04/06 01:09:44;;;;;;;;;;;9.50;99.90;;;;;;5091153;28;19909;-79
2022/04/06 01:12:10;;;;;;;;;;;9.30;99.90;;;;;;5092887;28;20417;-79
2022/04/06 01:14:37;;;;;;;;;;;9.30;99.90;;;;;;5092540;28;19909;-79
2022/04/06 01:17:04;;;;;;;;;;;9.30;99.90;;;;;;5091785;28;19974;-79
2022/04/06 01:19:39;;;;;;;;;;;9.20;99.90;;;;;;5093081;28;19912;-79
2022/04/06 01:22:12;;;;;;;;;;;9.20;99.90;;;;;;5094857;28;19908;-79
2022/04/06 01:24:38;;;;;;;;;;;9.20;99.90;;;;;;5092694;28;20004;-79
2022/04/06 01:27:04;;;;;;;;;;;9.20;99.90;;;;;;5092947;28;19916;-79
2022/04/06 01:29:30;;;;;;;;;;;9.20;99.90;;;;;;5093022;28;19934;-79
2022/04/06 01:31:55;;;;;;;;;;;9.20;99.90;;;;;;5091983;28;19928;-79
2022/04/06 01:34:21;;;;;;;;;;;9.20;99.90;;;;;;5092764;28;20369;-79
2022/04/06 01:36:46;;;;;;;;;;;9.20;99.90;;;;;;5092174;28;19915;-79
2022/04/06 01:39:12;;;;;;;;;;;9.20;99.90;;;;;;5092873;28;20346;-79
2022/04/06 01:41:38;;;;;;;;;;;9.20;99.90;;;;;;5092310;28;19912;-79
2022/04/06 01:44:06;;;;;;;;;;;9.20;99.90;;;;;;5092587;28;20345;-79
2022/04/06 01:46:32;;;;;;;;;;;9.20;99.90;;;;;;5092741;28;20026;-79
2022/04/06 01:54:26;;;;;;;;;;;9.20;99.90;;;;;;5092797;28;19935;-79
2022/04/06 01:56:52;;;;;;;;;;;9.10;99.90;;;;;;5090548;28;20346;-79
2022/04/06 01:59:18;;;;;;;;;;;9.20;99.90;;;;;;5092601;28;19999;-79
2022/04/06 02:01:44;;;;;;;;;;;9.20;99.90;;;;;;5091806;28;19952;-79
2022/04/06 02:04:13;;;;;;;;;;;9.10;99.90;;;;;;5092201;28;19908;-79
2022/04/06 02:06:41;;;;;;;;;;;9.10;99.90;;;;;;5090513;28;21625;-78
2022/04/06 02:09:06;;;;;;;;;;;9.00;99.90;;;;;;5092235;28;19915;-79
2022/04/06 02:11:32;;;;;;;;;;;9.00;99.90;;;;;;5092176;28;19913;-79
2022/04/06 02:13:58;;;;;;;;;;;9.00;99.90;;;;;;5091794;28;20015;-79
2022/04/06 02:16:23;;;;;;;;;;;9.00;99.90;;;;;;5092275;28;19908;-79
2022/04/06 02:18:49;;;;;;;;;;;9.00;99.90;;;;;;5092880;28;19911;-78
2022/04/06 02:21:15;;;;;;;;;;;8.90;99.90;;;;;;5095761;28;19909;-78
2022/04/06 02:23:40;;;;;;;;;;;8.90;99.90;;;;;;5095582;28;19923;-78
2022/04/06 02:26:06;;;;;;;;;;;9.00;99.90;;;;;;5094907;28;19908;-78
2022/04/06 02:28:32;;;;;;;;;;;8.90;99.90;;;;;;5095891;28;19908;-79
2022/04/06 02:30:57;;;;;;;;;;;8.90;99.90;;;;;;5095187;28;19955;-79
2022/04/06 02:33:23;;;;;;;;;;;8.90;99.90;;;;;;5095908;28;20428;-78
2022/04/06 02:35:48;;;;;;;;;;;8.80;99.90;;;;;;5095066;28;19962;-79
2022/04/06 02:38:14;;;;;;;;;;;8.80;99.90;;;;;;5096076;28;19933;-78
2022/04/06 02:40:40;;;;;;;;;;;8.80;99.90;;;;;;5109447;28;19916;-77
2022/04/06 02:43:05;;;;;;;;;;;8.70;99.90;;;;;;5099340;28;19938;-78
2022/04/06 02:45:31;;;;;;;;;;;8.70;99.90;;;;;;5094638;28;19908;-78
2022/04/06 02:47:56;;;;;;;;;;;8.70;99.90;;;;;;5095122;28;19908;-78
2022/04/06 02:50:22;;;;;;;;;;;8.70;99.90;;;;;;5095655;28;19916;-79
2022/04/06 02:52:47;;;;;;;;;;;8.60;99.90;;;;;;5095233;28;19951;-78
2022/04/06 02:55:13;;;;;;;;;;;8.60;99.90;;;;;;5094275;28;19912;-79
2022/04/06 02:57:41;;;;;;;;;;;8.60;99.90;;;;;;5095348;28;20357;-77
2022/04/06 03:00:07;;;;;;;;;;;8.50;99.90;;;;;;5095732;28;19915;-78
2022/04/06 03:02:33;;;;;;;;;;;8.50;99.90;;;;;;5095424;28;19920;-78
2022/04/06 03:04:58;;;;;;;;;;;8.50;99.90;;;;;;5093664;28;20053;-77
2022/04/06 03:07:24;;;;;;;;;;;8.50;99.90;;;;;;5095174;28;19908;-78
2022/04/06 03:09:49;;;;;;;;;;;8.50;99.90;;;;;;5094467;28;20368;-77
2022/04/06 03:12:15;;;;;;;;;;;8.50;99.90;;;;;;5095056;28;19916;-77
2022/04/06 03:14:41;;;;;;;;;;;8.50;99.90;;;;;;5094865;28;19923;-77
2022/04/06 03:17:06;;;;;;;;;;;8.40;99.90;;;;;;5095424;28;19908;-78
2022/04/06 03:19:32;;;;;;;;;;;8.40;99.90;;;;;;5095245;28;19958;-78
2022/04/06 03:21:58;;;;;;;;;;;8.40;99.90;;;;;;5094492;28;20329;-78
2022/04/06 03:24:23;;;;;;;;;;;8.40;99.90;;;;;;5094654;28;19908;-79
2022/04/06 03:26:49;;;;;;;;;;;8.40;99.90;;;;;;5094222;28;19908;-78
2022/04/06 03:29:14;;;;;;;;;;;8.40;99.90;;;;;;5095002;28;19995;-78
2022/04/06 03:31:40;;;;;;;;;;;8.40;99.90;;;;;;5094144;28;19965;-78
2022/04/06 03:34:05;;;;;;;;;;;8.30;99.90;;;;;;5094453;28;20387;-78
2022/04/06 03:36:31;;;;;;;;;;;8.30;99.90;;;;;;5094817;28;19908;-78
2022/04/06 03:38:57;;;;;;;;;;;8.40;99.90;;;;;;5094196;28;19912;-78
2022/04/06 03:41:22;;;;;;;;;;;8.40;99.90;;;;;;5094733;28;19991;-78
2022/04/06 03:43:49;;;;;;;;;;;8.40;99.90;;;;;;5093986;28;19912;-77
2022/04/06 03:46:14;;;;;;;;;;;8.40;99.90;;;;;;5094567;28;20479;-77
2022/04/06 03:48:40;;;;;;;;;;;8.40;99.90;;;;;;5094562;28;19938;-77
2022/04/06 03:51:05;;;;;;;;;;;8.40;99.90;;;;;;5093973;28;19919;-78
2022/04/06 03:53:31;;;;;;;;;;;8.40;99.90;;;;;;5094769;28;19919;-78
2022/04/06 03:55:57;;;;;;;;;;;8.40;99.90;;;;;;5093773;28;19913;-78
2022/04/06 03:58:22;;;;;;;;;;;8.40;99.90;;;;;;5108765;28;19908;-78
2022/04/06 04:00:48;;;;;;;;;;;8.30;99.90;;;;;;5098272;28;19919;-77
2022/04/06 04:03:13;;;;;;;;;;;8.40;99.90;;;;;;5093694;28;20376;-78
2022/04/06 04:05:39;;;;;;;;;;;8.40;99.90;;;;;;5094023;28;19970;-78
2022/04/06 04:08:05;;;;;;;;;;;8.40;99.90;;;;;;5093439;28;20472;-78
2022/04/06 04:10:30;;;;;;;;;;;8.50;99.90;;;;;;5092726;28;19911;-77
2022/04/06 04:12:56;;;;;;;;;;;8.50;99.90;;;;;;5092001;28;19961;-77
2022/04/06 04:15:21;;;;;;;;;;;8.40;99.90;;;;;;5093576;28;19915;-78
2022/04/06 04:17:47;;;;;;;;;;;8.40;99.90;;;;;;5093518;28;20070;-77
2022/04/06 04:20:13;;;;;;;;;;;8.40;99.90;;;;;;5093663;28;19914;-77
2022/04/06 04:22:39;;;;;;;;;;;8.30;99.90;;;;;;5093559;28;19943;-78
2022/04/06 04:25:05;;;;;;;;;;;8.30;99.90;;;;;;5093015;28;20569;-78
2022/04/06 04:27:31;;;;;;;;;;;8.30;99.90;;;;;;5093771;28;19915;-78
2022/04/06 04:29:57;;;;;;;;;;;8.30;99.90;;;;;;5093287;28;19916;-77
2022/04/06 04:32:22;;;;;;;;;;;8.30;99.90;;;;;;5094126;28;19999;-78
2022/04/06 04:34:48;;;;;;;;;;;8.30;99.90;;;;;;5091680;28;19908;-76
2022/04/06 04:37:14;;;;;;;;;;;8.30;99.90;;;;;;5094136;28;19934;-77
2022/04/06 04:39:40;;;;;;;;;;;8.20;99.90;;;;;;5093634;28;19962;-78
2022/04/06 04:42:05;;;;;;;;;;;8.20;99.90;;;;;;5091532;28;19912;-76
2022/04/06 04:44:31;;;;;;;;;;;8.20;99.90;;;;;;5093281;28;19908;-77
2022/04/06 04:46:57;;;;;;;;;;;8.10;99.90;;;;;;5092706;28;19951;-77
2022/04/06 04:49:23;;;;;;;;;;;8.10;99.90;;;;;;5093566;28;19943;-77
2022/04/06 04:51:48;;;;;;;;;;;8.20;99.90;;;;;;5092705;28;20400;-76
2022/04/06 04:54:14;;;;;;;;;;;8.20;99.90;;;;;;5093155;28;19919;-77
2022/04/06 04:56:41;;;;;;;;;;;8.20;99.90;;;;;;5093499;28;20024;-77
2022/04/06 04:59:07;;;;;;;;;;;8.20;99.90;;;;;;5092781;28;19923;-77
2022/04/06 05:01:33;;;;;;;;;;;8.10;99.90;;;;;;5093001;28;19920;-78
2022/04/06 05:03:58;;;;;;;;;;;8.10;99.90;;;;;;5091379;28;19998;-78
2022/04/06 05:06:24;;;;;;;;;;;8.00;99.90;;;;;;5093210;28;20380;-80
2022/04/06 05:08:49;;;;;;;;;;;8.00;99.90;;;;;;5092781;28;19908;-84
2022/04/06 05:11:15;;;;;;;;;;;8.00;99.90;;;;;;5093159;28;19919;-84
2022/04/06 05:13:41;;;;;;;;;;;7.90;99.90;;;;;;5093044;28;19912;-80
2022/04/06 05:16:07;;;;;;;;;;;7.80;99.90;;;;;;5099479;28;19918;-85
2022/04/06 05:18:33;;;;;;;;;;;7.70;99.90;;;;;;5091702;28;19908;-84
2022/04/06 05:20:58;;;;;;;;;;;7.70;99.90;;;;;;5090928;28;20459;-85
2022/04/06 05:23:24;;;;;;;;;;;7.70;99.90;;;;;;5091809;28;19916;-87
2022/04/06 05:25:50;;;;;;;;;;;7.60;99.90;;;;;;5091171;28;20368;-82
2022/04/06 05:28:16;;;;;;;;;;;7.60;99.90;;;;;;5092347;28;20266;-82
2022/04/06 05:30:41;;;;;;;;;;;7.50;99.90;;;;;;5091559;28;20441;-84
2022/04/06 05:33:07;;;;;;;;;;;7.50;99.90;;;;;;5092349;28;19965;-82
2022/04/06 05:35:33;;;;;;;;;;;7.40;99.90;;;;;;5091855;28;20269;-81
2022/04/06 05:37:58;;;;;;;;;;;7.50;99.90;;;;;;5092428;28;19908;-84
2022/04/06 05:40:24;;;;;;;;;;;7.40;99.90;;;;;;5094251;28;19957;-86
2022/04/06 05:42:50;;;;;;;;;;;7.40;99.90;;;;;;5100304;28;19909;-83
2022/04/06 05:45:16;;;;;;;;;;;7.40;99.90;;;;;;5095600;28;20269;-83
2022/04/06 05:47:44;;;;;;;;;;;7.40;99.90;;;;;;5098984;28;19991;-81
2022/04/06 05:50:11;;;;;;;;;;;7.40;99.90;;;;;;5092209;28;19955;-78
2022/04/06 05:52:36;;;;;;;;;;;7.40;99.90;;;;;;5092288;28;20292;-79
2022/04/06 05:55:02;;;;;;;;;;;7.40;99.90;;;;;;5095465;28;19991;-78
2022/04/06 05:57:28;;;;;;;;;;;7.40;99.90;;;;;;5096309;28;19922;-78
2022/04/06 05:59:54;;;;;;;;;;;7.40;99.90;;;;;;5096016;28;19908;-77
2022/04/06 06:02:19;;;;;;;;;;;7.30;99.90;;;;;;5096449;28;19920;-78
2022/04/06 06:04:45;;;;;;;;;;;7.30;99.90;;;;;;5096599;28;19908;-77
2022/04/06 06:07:11;;;;;;;;;;;7.30;99.90;;;;;;5096089;28;19965;-77
2022/04/06 06:09:37;;;;;;;;;;;7.40;99.90;;;;;;5096408;28;19908;-77
2022/04/06 06:12:03;;;;;;;;;;;7.30;99.90;;;;;;5096195;28;19916;-79
2022/04/06 06:14:28;;;;;;;;;;;7.20;99.90;;;;;;5096491;28;19911;-78
2022/04/06 06:16:54;;;;;;;;;;;7.20;99.90;;;;;;5095764;28;20384;-79
2022/04/06 06:19:19;;;;;;;;;;;7.20;99.90;;;;;;5096265;28;20017;-79
2022/04/06 06:21:45;;;;;;;;;;;7.30;99.90;;;;;;5095740;28;19908;-78
2022/04/06 06:24:11;;;;;;;;;;;7.30;99.90;;;;;;5095431;28;19915;-79
2022/04/06 06:26:37;;;;;;;;;;;7.30;99.90;;;;;;5095534;28;19915;-78
2022/04/06 06:29:03;;;;;;;;;;;7.30;99.90;;;;;;5095307;28;19962;-78
2022/04/06 06:31:29;;;;;;;;;;;7.30;99.90;;;;;;5095120;28;19912;-78
2022/04/06 06:33:55;;;;;;;;;;;7.30;99.90;;;;;;5095316;28;19965;-79
2022/04/06 06:36:21;;;;;;;;;;;7.30;99.90;;;;;;5095706;28;20365;-78
2022/04/06 06:38:46;;;;;;;;;;;7.40;99.90;;;;;;5095751;28;19954;-78
2022/04/06 06:41:12;;;;;;;;;;;7.40;99.90;;;;;;5094978;28;19955;-78
2022/04/06 06:43:37;;;;;;;;;;;7.40;99.90;;;;;;5095338;28;19939;-79
2022/04/06 06:46:03;;;;;;;;;;;7.40;99.90;;;;;;5095515;28;19994;-78
2022/04/06 06:48:28;;;;;;;;;;;7.50;99.90;;;;;;5094955;28;20246;-78
2022/04/06 06:50:54;;;;;;;;;;;7.50;99.90;;;;;;5095343;28;19981;-78
2022/04/06 06:53:20;;;;;;;;;;;7.60;99.90;;;;;;5094843;28;19919;-77
2022/04/06 06:55:45;;;;;;;;;;;7.50;99.90;;;;;;5095147;28;19950;-79
2022/04/06 06:58:11;;;;;;;;;;;7.60;99.90;;;;;;5094746;28;20276;-78
2022/04/06 07:00:36;;;;;;;;;;;7.70;99.90;;;;;;5095441;28;19908;-78
2022/04/06 07:03:02;;;;;;;;;;;7.80;99.90;;;;;;5108055;28;19927;-76
2022/04/06 07:05:28;;;;;;;;;;;7.80;99.90;;;;;;5097722;28;19912;-77
2022/04/06 07:08:01;;;;;;;;;;;7.90;99.90;;;;;;5095670;28;19908;-77
2022/04/06 07:10:26;;;;;;;;;;;7.90;99.90;;;;;;5095093;28;19919;-77
2022/04/06 07:12:53;;;;;;;;;;;7.90;99.90;;;;;;5094680;28;19916;-77
2022/04/06 07:15:18;;;;;;;;;;;7.90;99.90;;;;;;5094017;28;19934;-77
2022/04/06 07:17:44;;;;;;;;;;;8.00;99.90;;;;;;5095091;28;20320;-78
2022/04/06 07:20:10;;;;;;;;;;;8.00;99.90;;;;;;5127274;27;20006;-78
2022/04/06 07:22:36;;;;;;;;;;;8.00;99.90;;;;;;5094743;28;19931;-79
2022/04/06 07:25:02;;;;;;;;;;;8.00;99.90;;;;;;5093993;28;19908;-79
2022/04/06 07:27:37;;;;;;;;;;;8.00;99.90;;;;;;5094407;28;19912;-80
2022/04/06 07:30:04;;;;;;;;;;;8.10;99.90;;;;;;5093969;28;19908;-79
2022/04/06 07:32:29;;;;;;;;;;;8.10;99.90;;;;;;5094465;28;19920;-79
2022/04/06 07:34:55;;;;;;;;;;;8.10;99.90;;;;;;5094591;28;19908;-79
2022/04/06 07:37:21;;;;;;;;;;;8.10;99.90;;;;;;5094626;28;19913;-78
2022/04/06 07:39:46;;;;;;;;;;;8.10;99.90;;;;;;5093058;28;20274;-79
2022/04/06 07:42:12;;;;;;;;;;;8.10;99.90;;;;;;5093815;28;20002;-80
2022/04/06 07:44:37;;;;;;;;;;;8.10;99.90;;;;;;5093347;28;19912;-79
2022/04/06 07:47:03;;;;;;;;;;;8.20;99.90;;;;;;5094036;28;19915;-79
2022/04/06 07:49:28;;;;;;;;;;;8.20;99.90;;;;;;5094477;28;20269;-79
2022/04/06 07:51:54;;;;;;;;;;;8.20;99.90;;;;;;5093282;28;19919;-79
2022/04/06 07:54:20;;;;;;;;;;;8.20;99.90;;;;;;5093958;28;20560;-78
2022/04/06 07:56:47;;;;;;;;;;;8.20;99.90;;;;;;5094258;28;19915;-79
2022/04/06 07:59:12;;;;;;;;;;;8.30;99.90;;;;;;5093787;28;19908;-79
2022/04/06 08:01:38;;;;;;;;;;;8.30;99.90;;;;;;5093339;28;19924;-79
2022/04/06 08:04:03;;;;;;;;;;;8.30;99.90;;;;;;5093212;28;20378;-80
2022/04/06 08:06:29;;;;;;;;;;;8.20;99.90;;;;;;5093874;28;19915;-77
2022/04/06 08:08:55;;;;;;;;;;;8.20;99.90;;;;;;5093892;28;19922;-79
2022/04/06 08:11:21;;;;;;;;;;;8.20;99.90;;;;;;5091915;28;19916;-81
2022/04/06 08:13:46;;;;;;;;;;;8.20;99.90;;;;;;5093660;28;20009;-81
2022/04/06 08:16:13;;;;;;;;;;;8.20;99.90;;;;;;5092666;28;19908;-78
2022/04/06 08:18:38;;;;;;;;;;;8.20;99.90;;;;;;5093437;28;19934;-81
2022/04/06 08:21:07;;;;;;;;;;;8.30;99.90;;;;;;5108935;28;19912;-79
2022/04/06 08:23:32;;;;;;;;;;;8.30;99.90;;;;;;5093721;28;19991;-80
2022/04/06 08:25:58;;;;;;;;;;;8.30;99.90;;;;;;5093551;28;19963;-81
2022/04/06 08:28:24;;;;;;;;;;;8.40;99.90;;;;;;5092904;28;19912;-81
2022/04/06 08:30:49;;;;;;;;;;;8.40;99.90;;;;;;5091903;28;19920;-79
2022/04/06 08:33:15;;;;;;;;;;;8.40;99.90;;;;;;5092014;28;19991;-78
2022/04/06 08:35:41;;;;;;;;;;;8.40;99.90;;;;;;5092650;28;19908;-77
2022/04/06 08:38:10;;;;;;;;;;;8.50;99.90;;;;;;5092568;28;20357;-77
2022/04/06 08:40:36;;;;;;;;;;;8.60;99.90;;;;;;5092470;28;19912;-76
2022/04/06 08:43:03;;;;;;;;;;;8.80;99.90;;;;;;5092933;28;19942;-76
2022/04/06 08:45:29;;;;;;;;;;;8.90;99.90;;;;;;5093148;28;19953;-77
2022/04/06 08:47:57;;;;;;;;;;;9.10;99.90;;;;;;5092606;28;19908;-77
2022/04/06 08:50:26;;;;;;;;;;;9.30;99.90;;;;;;5091936;28;19999;-76
2022/04/06 08:52:53;;;;;;;;;;;9.50;99.90;;;;;;5092672;28;19912;-76
2022/04/06 08:55:19;;;;;;;;;;;9.70;99.90;;;;;;5092064;28;20044;-77
2022/04/06 08:57:44;;;;;;;;;;;9.70;99.90;;;;;;5092403;28;19912;-77
2022/04/06 09:00:12;;;;;;;;;;;9.90;99.90;;;;;;5091777;28;19912;-77
2022/04/06 09:02:38;;;;;;;;;;;10.00;99.90;;;;;;5091910;28;19959;-77
2022/04/06 09:05:03;;;;;;;;;;;10.00;99.90;;;;;;5090242;28;19951;-77
2022/04/06 09:07:31;;;;;;;;;;;10.00;99.90;;;;;;5091650;28;20369;-77
2022/04/06 09:09:56;;;;;;;;;;;9.90;99.90;;;;;;5092021;28;19939;-77
2022/04/06 09:12:23;;;;;;;;;;;9.90;99.90;;;;;;5091733;28;19963;-77
2022/04/06 09:15:02;;;;;;;;;;;9.80;99.90;;;;;;5092520;28;19959;-77
2022/04/06 09:17:28;;;;;;;;;;;9.70;99.90;;;;;;5092205;28;19919;-77
2022/04/06 09:19:57;;;;;;;;;;;9.90;99.90;;;;;;5092167;28;19912;-77
2022/04/06 09:22:22;;;;;;;;;;;10.00;99.90;;;;;;5091886;28;19916;-77
2022/04/06 09:24:58;;;;;;;;;;;10.20;99.90;;;;;;5092959;28;20294;-77
2022/04/06 09:27:30;;;;;;;;;;;10.40;99.90;;;;;;5097501;28;20140;-76
2022/04/06 09:29:56;;;;;;;;;;;10.60;99.90;;;;;;5090227;28;19908;-77
2022/04/06 09:32:22;;;;;;;;;;;10.70;99.90;;;;;;5091705;28;19923;-77
2022/04/06 09:34:48;;;;;;;;;;;11.00;99.90;;;;;;5091974;28;19942;-78
2022/04/06 09:37:23;;;;;;;;;;;11.10;99.90;;;;;;5092358;28;20346;-77
2022/04/06 09:39:49;;;;;;;;;;;11.10;99.90;;;;;;5095656;28;20290;-77
2022/04/06 09:42:23;;;;;;;;;;;11.10;99.90;;;;;;5091470;28;20010;-77
2022/04/06 09:47:39;;;;;;;;;;;11.10;99.90;;;;;;5092133;28;20372;-77
2022/04/06 09:50:12;;;;;;;;;;;11.10;99.90;;;;;;5089648;28;19909;-78
2022/04/06 09:52:38;;;;;;;;;;;11.10;99.90;;;;;;5092226;28;20410;-78
2022/04/06 09:55:07;;;;;;;;;;;11.20;99.90;;;;;;5091367;28;19999;-77
2022/04/06 09:57:40;;;;;;;;;;;11.10;99.90;;;;;;5091801;28;19908;-77
2022/04/06 10:00:07;;;;;;;;;;;11.10;99.90;;;;;;5091052;28;19915;-77
2022/04/06 10:02:33;;;;;;;;;;;11.20;99.90;;;;;;5091097;28;19920;-79
2022/04/06 10:05:00;;;;;;;;;;;11.30;99.90;;;;;;5091686;28;19920;-77
2022/04/06 10:07:26;;;;;;;;;;;11.50;99.90;;;;;;5091542;28;19970;-77
2022/04/06 10:09:52;;;;;;;;;;;11.60;99.90;;;;;;5091274;28;19914;-77
2022/04/06 10:12:17;;;;;;;;;;;11.90;99.90;;;;;;5091167;28;19912;-76
2022/04/06 10:14:44;;;;;;;;;;;12.10;99.90;;;;;;5088889;28;19912;-77
2022/04/06 10:17:09;;;;;;;;;;;12.20;99.90;;;;;;5090005;28;19909;-76
2022/04/06 10:19:39;;;;;;;;;;;12.20;99.90;;;;;;5094083;28;20260;-76
2022/04/06 10:22:08;;;;;;;;;;;12.30;99.90;;;;;;5090831;28;19908;-76
2022/04/06 10:24:40;;;;;;;;;;;12.30;99.90;;;;;;5091346;28;19909;-77
2022/04/06 10:27:17;;;;;;;;;;;12.30;99.90;;;;;;5091254;28;19950;-76
2022/04/06 10:30:02;;;;;;;;;;;12.00;99.90;;;;;;5091486;28;19908;-77
2022/04/06 10:32:37;;;;;;;;;;;12.00;99.90;;;;;;5091077;28;19961;-77
2022/04/06 10:35:21;;;;;;;;;;;12.00;99.90;;;;;;5091696;28;19961;-77
2022/04/06 10:37:51;;;;;;;;;;;12.00;99.90;;;;;;5091420;28;19908;-77
2022/04/06 10:40:17;;;;;;;;;;;12.10;99.90;;;;;;5093077;28;20346;-77
2022/04/06 10:42:45;;;;;;;;;;;12.20;99.90;;;;;;5095137;28;19915;-77
2022/04/06 10:45:31;;;;;;;;;;;12.10;99.90;;;;;;5094217;28;20281;-77
2022/04/06 10:48:10;;;;;;;;;;;12.20;99.90;;;;;;5086849;28;20056;-77
2022/04/06 10:50:35;;;;;;;;;;;12.20;99.90;;;;;;5095034;28;19919;-77
2022/04/06 10:53:22;;;;;;;;;;;12.20;99.90;;;;;;5094628;28;19912;-77
2022/04/06 10:55:57;;;;;;;;;;;12.10;99.90;;;;;;5099638;28;19982;-77
2022/04/06 10:58:25;;;;;;;;;;;12.20;99.90;;;;;;5094525;28;19912;-76
2022/04/06 11:01:09;;;;;;;;;;;12.20;99.90;;;;;;5094668;28;19908;-78
2022/04/06 11:03:37;;;;;;;;;;;12.30;99.90;;;;;;5094990;28;19920;-77
2022/04/06 11:06:03;;;;;;;;;;;12.50;99.90;;;;;;5094885;28;19970;-77
2022/04/06 11:11:37;;;;;;;;;;;12.20;99.90;;;;;;5094633;28;20430;-78
2022/04/06 11:14:03;;;;;;;;;;;11.80;99.90;;;;;;5094650;28;19919;-85
2022/04/06 11:16:45;;;;;;;;;;;11.40;99.90;;;;;;5094856;28;19912;-87
2022/04/06 11:19:12;;;;;;;;;;;11.20;99.90;;;;;;5094817;28;19908;-87
2022/04/06 11:21:52;;;;;;;;;;;10.90;99.90;;;;;;5096902;28;19960;-89
2022/04/06 11:24:19;;;;;;;;;;;10.60;99.90;;;;;;5094446;28;19919;-89
2022/04/06 11:26:45;;;;;;;;;;;10.20;99.90;;;;;;5096263;28;19915;-89
2022/04/06 11:29:12;;;;;;;;;;;10.10;99.90;;;;;;5095786;28;19912;-89
2022/04/06 11:31:56;;;;;;;;;;;10.10;99.90;;;;;;5094894;28;19959;-83
2022/04/06 11:34:28;;;;;;;;;;;10.20;99.90;;;;;;5093762;28;20349;-80
2022/04/06 11:36:56;;;;;;;;;;;10.30;99.90;;;;;;5094375;28;19908;-80
2022/04/06 11:39:22;;;;;;;;;;;10.40;99.90;;;;;;5093423;28;20001;-79
2022/04/06 11:41:47;;;;;;;;;;;10.50;99.90;;;;;;5094226;28;19961;-79
2022/04/06 11:44:21;;;;;;;;;;;10.40;99.90;;;;;;5093142;28;19915;-79
2022/04/06 11:46:46;;;;;;;;;;;10.40;99.90;;;;;;5093834;28;20275;-78
2022/04/06 11:49:12;;;;;;;;;;;10.40;99.90;;;;;;5093204;28;19923;-82
2022/04/06 11:51:39;;;;;;;;;;;10.30;99.90;;;;;;5093362;28;19923;-83
2022/04/06 11:54:05;;;;;;;;;;;10.20;99.90;;;;;;5093265;28;19965;-79
2022/04/06 11:56:31;;;;;;;;;;;10.20;99.90;;;;;;5093522;28;20437;-78
2022/04/06 11:58:57;;;;;;;;;;;10.20;99.90;;;;;;5093830;28;19940;-78
2022/04/06 12:01:28;;;;;;;;;;;10.40;99.90;;;;;;5092521;28;19981;-80
2022/04/06 12:03:58;;;;;;;;;;;10.50;99.90;;;;;;5093584;28;19908;-76
2022/04/06 12:06:30;;;;;;;;;;;10.60;99.90;;;;;;5093130;28;19990;-75
2022/04/06 12:08:56;;;;;;;;;;;10.70;99.90;;;;;;5093424;28;19908;-77
2022/04/06 12:11:21;;;;;;;;;;;10.70;99.90;;;;;;5092749;28;19942;-77
2022/04/06 12:13:47;;;;;;;;;;;10.80;99.90;;;;;;5103929;28;19961;-77
2022/04/06 12:16:13;;;;;;;;;;;10.90;99.90;;;;;;5092898;28;19916;-77
2022/04/06 12:18:39;;;;;;;;;;;11.00;99.90;;;;;;5093342;28;19912;-77
2022/04/06 12:21:18;;;;;;;;;;;10.90;99.90;;;;;;5092113;28;19915;-77
2022/04/06 12:23:44;;;;;;;;;;;10.80;99.90;;;;;;5092806;28;19915;-77
2022/04/06 12:26:11;;;;;;;;;;;10.80;99.90;;;;;;5092885;28;19908;-77
2022/04/06 12:28:36;;;;;;;;;;;10.90;99.90;;;;;;5092887;28;19998;-76
2022/04/06 12:31:06;;;;;;;;;;;10.90;99.90;;;;;;5093280;28;20049;-75
2022/04/06 12:33:48;;;;;;;;;;;11.00;99.90;;;;;;5092562;28;19912;-77
2022/04/06 12:36:16;;;;;;;;;;;11.20;99.90;;;;;;5092473;28;19908;-77
2022/04/06 12:38:59;;;;;;;;;;;11.40;99.90;;;;;;5092555;28;19977;-77
2022/04/06 12:41:25;;;;;;;;;;;11.70;99.90;;;;;;5074648;28;19915;-77
2022/04/06 12:43:51;;;;;;;;;;;11.90;99.90;;;;;;5093018;28;19915;-77
2022/04/06 12:46:35;;;;;;;;;;;12.10;99.90;;;;;;5092661;28;19912;-77
2022/04/06 12:49:36;;;;;;;;;;;12.10;99.90;;;;;;5092209;28;19909;-77
2022/04/06 12:52:07;;;;;;;;;;;12.00;99.90;;;;;;5049732;28;20309;-77
2022/04/06 12:54:34;;;;;;;;;;;12.00;99.90;;;;;;5085228;28;19908;-77
2022/04/06 12:57:03;;;;;;;;;;;11.90;99.90;;;;;;5091518;28;19908;-77
2022/04/06 12:59:39;;;;;;;;;;;11.70;99.90;;;;;;5092225;28;19908;-77
2022/04/06 13:02:05;;;;;;;;;;;11.70;99.90;;;;;;5090936;28;19927;-77
2022/04/06 13:04:31;;;;;;;;;;;11.80;99.90;;;;;;5090947;28;19995;-76
2022/04/06 13:06:57;;;;;;;;;;;11.90;99.90;;;;;;5092138;28;20379;-77
2022/04/06 13:09:23;;;;;;;;;;;12.10;99.90;;;;;;5091623;28;19908;-77
2022/04/06 13:11:48;;;;;;;;;;;12.40;99.90;;;;;;5090711;28;19916;-77
2022/04/06 13:14:14;;;;;;;;;;;12.60;99.90;;;;;;5090354;28;19912;-76
2022/04/06 13:16:40;;;;;;;;;;;12.90;99.90;;;;;;5091867;28;19909;-76
2022/04/06 13:19:07;;;;;;;;;;;12.90;99.90;;;;;;5091637;28;19979;-76
2022/04/06 13:21:36;;;;;;;;;;;12.90;99.90;;;;;;5091160;28;20388;-75
2022/04/06 13:24:02;;;;;;;;;;;12.90;99.90;;;;;;5092831;28;19916;-76
2022/04/06 13:26:27;;;;;;;;;;;12.80;99.90;;;;;;5092545;28;19908;-76
2022/04/06 13:28:53;;;;;;;;;;;12.70;99.90;;;;;;5093921;28;19908;-76
2022/04/06 13:31:18;;;;;;;;;;;12.60;99.90;;;;;;5099266;28;20394;-77
2022/04/06 13:33:44;;;;;;;;;;;12.50;99.90;;;;;;5092071;28;20280;-77
2022/04/06 13:36:10;;;;;;;;;;;12.40;99.90;;;;;;5092047;28;20010;-77
2022/04/06 13:38:36;;;;;;;;;;;12.30;99.90;;;;;;5090905;28;19908;-75
2022/04/06 13:41:03;;;;;;;;;;;12.20;99.90;;;;;;5092220;28;20335;-75
2022/04/06 13:43:29;;;;;;;;;;;12.30;99.90;;;;;;5091684;28;19923;-75
2022/04/06 13:45:54;;;;;;;;;;;12.30;99.90;;;;;;5091987;28;19908;-75
2022/04/06 13:48:20;;;;;;;;;;;12.20;99.90;;;;;;5088962;28;19915;-75
2022/04/06 13:50:45;;;;;;;;;;;12.20;99.90;;;;;;5091467;28;20011;-75
2022/04/06 13:53:11;;;;;;;;;;;12.10;99.90;;;;;;5090912;28;19913;-75
2022/04/06 13:55:37;;;;;;;;;;;12.10;99.90;;;;;;5092053;28;19908;-75
2022/04/06 13:58:03;;;;;;;;;;;12.20;99.90;;;;;;5091838;28;20027;-75
2022/04/06 14:00:30;;;;;;;;;;;12.20;99.90;;;;;;5090197;28;19916;-75
2022/04/06 14:02:56;;;;;;;;;;;12.10;99.90;;;;;;5091989;28;20425;-75
2022/04/06 14:05:22;;;;;;;;;;;12.10;99.90;;;;;;5091254;28;20007;-75
2022/04/06 14:07:48;;;;;;;;;;;12.20;99.90;;;;;;5092006;28;19913;-76
2022/04/06 14:10:14;;;;;;;;;;;12.20;99.90;;;;;;5091192;28;19908;-77
2022/04/06 14:12:40;;;;;;;;;;;12.20;99.90;;;;;;5091760;28;19912;-76
2022/04/06 14:15:06;;;;;;;;;;;12.30;99.90;;;;;;5093501;28;19908;-77
2022/04/06 14:17:32;;;;;;;;;;;12.40;99.90;;;;;;5095285;28;19914;-77
2022/04/06 14:19:57;;;;;;;;;;;12.30;99.90;;;;;;5095594;28;20002;-77
2022/04/06 14:22:24;;;;;;;;;;;12.20;99.90;;;;;;5094580;28;19917;-77
2022/04/06 14:27:34;;;;;;;;;;;12.20;99.90;;;;;;5094799;28;19915;-77
2022/04/06 14:29:59;;;;;;;;;;;12.00;99.90;;;;;;5095308;28;20419;-84
2022/04/06 14:32:25;;;;;;;;;;;11.70;99.90;;;;;;5094967;28;19916;-85
2022/04/06 14:34:51;;;;;;;;;;;11.50;99.90;;;;;;5095525;28;19908;-82
2022/04/06 14:37:17;;;;;;;;;;;11.30;99.90;;;;;;5094580;28;19908;-80
2022/04/06 14:39:43;;;;;;;;;;;11.20;99.90;;;;;;5095476;28;19943;-80